createdAt,value
2022-07-31T00:03:55.373Z,28.20
2022-07-31T00:09:01.672Z,28.20
2022-07-31T00:14:08.466Z,28.30
2022-07-31T00:19:14.731Z,28.50
2022-07-31T00:24:20.368Z,28.60
2022-07-31T00:29:26.218Z,28.70
2022-07-31T00:34:32.239Z,28.90
2022-07-31T00:39:41.019Z,29.30
2022-07-31T00:44:47.854Z,29.60
2022-07-31T00:49:54.355Z,29.90
2022-07-31T00:55:00.482Z,30.30
2022-07-31T01:00:08.049Z,30.50
2022-07-31T01:05:13.813Z,30.80
2022-07-31T01:10:38.365Z,31.10
2022-07-31T01:15:45.665Z,31.20
2022-07-31T01:20:53.136Z,31.10
2022-07-31T01:26:25.340Z,31.40
2022-07-31T01:31:51.829Z,31.90
2022-07-31T01:37:22.120Z,32.60
2022-07-31T01:42:30.716Z,33.00
2022-07-31T01:47:39.183Z,32.60
2022-07-31T01:52:46.857Z,32.40
2022-07-31T01:57:56.455Z,32.60
2022-07-31T02:03:09.473Z,33.10
2022-07-31T02:08:20.105Z,33.00
2022-07-31T02:13:29.128Z,33.00
2022-07-31T02:18:36.752Z,33.40
2022-07-31T02:23:58.327Z,33.70
2022-07-31T02:29:04.699Z,33.80
2022-07-31T02:34:10.429Z,33.90
2022-07-31T02:39:20.357Z,34.20
2022-07-31T02:44:28.115Z,34.50
2022-07-31T02:49:35.498Z,34.70
2022-07-31T02:54:42.477Z,34.10
2022-07-31T02:59:48.103Z,34.20
2022-07-31T03:04:54.317Z,34.40
2022-07-31T03:10:03.348Z,34.30
2022-07-31T03:15:25.320Z,34.40
2022-07-31T03:20:32.151Z,34.00
2022-07-31T03:25:40.118Z,33.40
2022-07-31T03:30:47.048Z,33.60
2022-07-31T03:35:54.713Z,33.70
2022-07-31T03:41:00.659Z,33.50
2022-07-31T03:46:07.599Z,34.60
2022-07-31T03:51:14.709Z,35.00
2022-07-31T03:56:21.620Z,35.50
2022-07-31T04:01:28.312Z,35.90
2022-07-31T04:06:59.693Z,35.90
2022-07-31T04:12:06.078Z,36.50
2022-07-31T04:17:12.390Z,36.80
2022-07-31T04:22:18.836Z,36.90
2022-07-31T04:27:25.912Z,36.90
2022-07-31T04:34:27.514Z,36.40
2022-07-31T04:39:58.467Z,36.70
2022-07-31T04:45:08.739Z,36.90
2022-07-31T04:50:14.921Z,36.70
2022-07-31T04:55:33.287Z,37.00
2022-07-31T05:00:45.402Z,37.30
2022-07-31T05:05:56.915Z,36.70
2022-07-31T05:11:21.526Z,38.00
2022-07-31T05:16:29.392Z,38.90
2022-07-31T05:21:47.129Z,38.70
2022-07-31T05:27:05.987Z,37.70
2022-07-31T05:32:12.017Z,38.10
2022-07-31T05:37:18.287Z,39.50
2022-07-31T05:42:24.672Z,40.80
2022-07-31T05:47:48.876Z,39.30
2022-07-31T05:52:54.745Z,37.90
2022-07-31T05:58:26.678Z,36.90
2022-07-31T06:03:51.941Z,37.00
2022-07-31T06:09:17.254Z,38.00
2022-07-31T06:14:28.197Z,38.70
2022-07-31T06:19:49.621Z,38.40
2022-07-31T06:24:55.865Z,37.70
2022-07-31T06:30:02.221Z,36.90
2022-07-31T06:35:09.439Z,36.40
2022-07-31T06:40:32.752Z,37.30
2022-07-31T06:46:17.049Z,39.80
2022-07-31T06:52:04.971Z,39.60
2022-07-31T06:57:12.248Z,40.30
2022-07-31T07:02:18.802Z,41.40
2022-07-31T07:07:24.553Z,41.10
2022-07-31T07:12:39.410Z,40.90
2022-07-31T07:17:45.388Z,41.10
2022-07-31T07:22:56.666Z,42.70
2022-07-31T07:28:30.325Z,42.50
2022-07-31T07:33:42.741Z,41.20
2022-07-31T07:38:59.350Z,39.00
2022-07-31T07:44:09.279Z,37.20
2022-07-31T07:49:16.937Z,35.90
2022-07-31T07:54:34.862Z,35.10
2022-07-31T08:00:01.790Z,34.60
2022-07-31T08:05:34.214Z,33.90
2022-07-31T08:10:40.988Z,33.70
2022-07-31T08:15:51.714Z,33.50
2022-07-31T08:21:14.920Z,33.40
2022-07-31T08:26:20.802Z,33.10
2022-07-31T08:31:30.693Z,33.20
2022-07-31T08:36:58.737Z,33.90
2022-07-31T08:42:12.406Z,34.70
2022-07-31T08:47:19.653Z,34.40
2022-07-31T08:52:29.499Z,34.50
2022-07-31T08:57:40.625Z,34.80
2022-07-31T09:02:47.190Z,35.20
2022-07-31T09:07:53.073Z,35.10
2022-07-31T09:12:59.699Z,34.50
2022-07-31T09:18:06.079Z,33.70
2022-07-31T09:23:14.269Z,33.10
2022-07-31T09:28:33.090Z,32.70
2022-07-31T09:33:45.324Z,32.30
2022-07-31T09:39:20.490Z,32.00
2022-07-31T09:44:53.045Z,31.60
2022-07-31T09:50:05.086Z,31.30
2022-07-31T09:55:17.019Z,31.20
2022-07-31T10:00:24.954Z,31.10
2022-07-31T10:05:32.873Z,31.00
2022-07-31T10:10:40.602Z,30.90
2022-07-31T10:16:03.562Z,30.70
2022-07-31T10:21:19.798Z,30.60
2022-07-31T10:26:59.208Z,30.60
2022-07-31T10:32:04.165Z,30.50
2022-07-31T10:37:22.410Z,30.30
2022-07-31T10:49:08.810Z,30.10
2022-07-31T10:54:44.391Z,30.20
2022-07-31T11:00:29.579Z,30.00
2022-07-31T11:06:12.159Z,29.90
2022-07-31T11:11:40.699Z,30.00
2022-07-31T11:17:14.476Z,29.80
2022-07-31T11:22:36.128Z,29.70
2022-07-31T11:27:42.365Z,29.60
2022-07-31T11:33:09.666Z,29.40
2022-07-31T11:38:53.439Z,29.40
2022-07-31T11:43:50.357Z,29.40
2022-07-31T11:48:57.451Z,29.30
2022-07-31T11:54:03.080Z,29.20
2022-07-31T11:59:08.864Z,29.10
2022-07-31T12:04:37.944Z,29.00
2022-07-31T12:10:02.310Z,29.00
2022-07-31T12:15:18.110Z,29.00
2022-07-31T12:20:34.920Z,28.90
2022-07-31T12:25:43.994Z,28.90
2022-07-31T12:31:01.543Z,28.90
2022-07-31T12:36:16.279Z,28.80
2022-07-31T12:41:32.050Z,28.80
2022-07-31T12:46:39.081Z,28.80
2022-07-31T12:51:47.187Z,28.80
2022-07-31T12:56:55.210Z,28.80
2022-07-31T13:02:01.397Z,28.80
2022-07-31T13:07:11.425Z,28.80
2022-07-31T13:12:17.591Z,28.80
2022-07-31T13:17:23.765Z,28.70
2022-07-31T13:22:29.750Z,28.70
2022-07-31T13:27:38.356Z,28.70
2022-07-31T13:32:44.469Z,28.60
2022-07-31T13:38:03.901Z,28.60
2022-07-31T13:44:00.344Z,28.50
2022-07-31T13:49:10.820Z,28.50
2022-07-31T13:54:17.855Z,28.50
2022-07-31T13:59:24.888Z,28.50
2022-07-31T14:04:32.967Z,28.40
2022-07-31T14:09:47.106Z,28.40
2022-07-31T14:15:01.595Z,28.40
2022-07-31T14:20:08.184Z,28.50
2022-07-31T14:25:18.564Z,28.50
2022-07-31T14:30:26.570Z,28.50
2022-07-31T14:35:34.940Z,28.50
2022-07-31T14:40:40.612Z,28.40
2022-07-31T14:45:51.021Z,28.40
2022-07-31T14:50:57.722Z,28.40
2022-07-31T14:56:04.721Z,28.40
2022-07-31T15:01:10.771Z,28.30
2022-07-31T15:06:40.098Z,28.30
2022-07-31T15:12:00.407Z,28.40
2022-07-31T15:17:07.859Z,28.40
2022-07-31T15:22:17.024Z,28.40
2022-07-31T15:27:25.626Z,28.40
2022-07-31T15:33:15.938Z,28.40
2022-07-31T15:38:55.316Z,28.30
2022-07-31T15:44:14.910Z,28.40
2022-07-31T15:50:00.304Z,28.40
2022-07-31T16:01:27.817Z,28.40
2022-07-31T16:08:33.002Z,28.40
2022-07-31T16:14:11.779Z,28.40
2022-07-31T16:19:31.190Z,28.50
2022-07-31T16:24:40.938Z,28.50
2022-07-31T16:30:37.197Z,28.40
2022-07-31T16:42:20.708Z,28.50
2022-07-31T16:47:51.150Z,28.40
2022-07-31T16:52:54.910Z,28.30
2022-07-31T16:58:00.808Z,28.30
2022-07-31T17:03:06.625Z,28.30
2022-07-31T17:08:31.761Z,28.20
2022-07-31T17:13:37.629Z,28.20
2022-07-31T17:18:43.419Z,28.30
2022-07-31T17:23:58.368Z,28.20
2022-07-31T17:29:03.791Z,28.20
2022-07-31T17:34:09.468Z,28.20
2022-07-31T17:39:14.814Z,28.20
2022-07-31T17:44:20.362Z,28.20
2022-07-31T17:49:26.332Z,28.20
2022-07-31T17:54:33.868Z,28.10
2022-07-31T17:59:39.612Z,28.10
2022-07-31T18:04:45.494Z,28.10
2022-07-31T18:09:51.886Z,28.10
2022-07-31T18:14:57.757Z,28.00
2022-07-31T18:20:06.318Z,28.00
2022-07-31T18:25:12.332Z,28.00
2022-07-31T18:30:17.887Z,28.00
2022-07-31T18:35:24.098Z,28.00
2022-07-31T18:40:29.618Z,28.00
2022-07-31T18:45:36.291Z,28.00
2022-07-31T18:51:02.347Z,28.00
2022-07-31T18:56:09.934Z,28.00
2022-07-31T19:01:15.840Z,28.10
2022-07-31T19:06:24.339Z,28.00
2022-07-31T19:11:30.508Z,28.00
2022-07-31T19:16:36.458Z,28.00
2022-07-31T19:21:44.472Z,28.00
2022-07-31T19:26:50.434Z,28.20
2022-07-31T19:31:59.411Z,28.20
2022-07-31T19:37:05.789Z,28.20
2022-07-31T19:42:16.191Z,28.20
2022-07-31T19:47:22.161Z,28.20
2022-07-31T19:52:28.119Z,28.30
2022-07-31T19:57:34.353Z,28.30
2022-07-31T20:02:41.641Z,28.30
2022-07-31T20:07:47.532Z,28.20
2022-07-31T20:12:53.259Z,28.00
2022-07-31T20:17:59.518Z,27.80
2022-07-31T20:23:05.702Z,27.70
2022-07-31T20:28:11.575Z,27.60
2022-07-31T20:33:17.758Z,27.60
2022-07-31T20:38:25.613Z,27.50
2022-07-31T20:43:32.049Z,27.50
2022-07-31T20:48:40.595Z,27.50
2022-07-31T20:53:46.247Z,27.50
2022-07-31T20:58:52.332Z,27.40
2022-07-31T21:03:58.924Z,27.40
2022-07-31T21:09:04.935Z,27.30
2022-07-31T21:14:10.691Z,27.30
2022-07-31T21:19:16.931Z,27.10
2022-07-31T21:24:23.220Z,26.80
2022-07-31T21:29:31.832Z,26.70
2022-07-31T21:34:38.758Z,26.70
2022-07-31T21:39:44.909Z,26.70
2022-07-31T21:44:51.129Z,26.70
2022-07-31T21:49:58.986Z,26.70
2022-07-31T21:55:07.098Z,26.70
2022-07-31T22:00:15.749Z,26.80
2022-07-31T22:05:40.119Z,26.80
2022-07-31T22:10:45.941Z,26.90
2022-07-31T22:15:59.793Z,26.90
2022-07-31T22:21:10.982Z,26.90
2022-07-31T22:26:18.331Z,26.80
2022-07-31T22:31:24.859Z,26.90
2022-07-31T22:36:31.269Z,26.90
2022-07-31T22:41:37.771Z,26.90
2022-07-31T22:46:44.724Z,27.00
2022-07-31T22:51:50.627Z,26.90
2022-07-31T22:56:56.560Z,27.00
2022-07-31T23:02:03.591Z,27.00
2022-07-31T23:07:10.830Z,27.10
2022-07-31T23:12:16.699Z,27.20
2022-07-31T23:17:23.522Z,27.40
2022-07-31T23:22:30.610Z,27.50
2022-07-31T23:27:42.381Z,27.60
2022-07-31T23:32:48.616Z,27.60
2022-07-31T23:37:54.492Z,27.70
2022-07-31T23:43:01.308Z,27.70
2022-07-31T23:48:07.943Z,27.70
2022-07-31T23:53:20.927Z,27.60
2022-07-31T23:58:27.504Z,27.60
